createdAt,value
2023-08-03T00:00:17.806Z,2.95
2023-08-03T00:02:46.170Z,2.28
2023-08-03T00:05:18.041Z,2.17
2023-08-03T00:07:48.471Z,2.67
2023-08-03T00:10:16.223Z,2.60
2023-08-03T00:12:44.228Z,2.22
2023-08-03T00:15:12.177Z,2.08
2023-08-03T00:17:39.290Z,2.13
2023-08-03T00:22:34.624Z,1.98
2023-08-03T00:25:01.876Z,1.90
2023-08-03T00:27:29.378Z,2.22
2023-08-03T00:29:56.761Z,1.63
2023-08-03T00:32:23.880Z,2.20
2023-08-03T00:37:17.620Z,1.95
2023-08-03T00:39:44.422Z,1.58
2023-08-03T00:42:11.258Z,1.80
2023-08-03T00:44:38.643Z,1.40
2023-08-03T00:47:06.075Z,1.40
2023-08-03T00:49:33.164Z,1.73
2023-08-03T00:52:00.152Z,2.08
2023-08-03T00:54:28.016Z,1.45
2023-08-03T00:56:55.180Z,1.08
2023-08-03T01:01:48.676Z,1.02
2023-08-03T01:04:15.448Z,1.42
2023-08-03T01:06:42.265Z,1.20
2023-08-03T01:09:09.258Z,1.45
2023-08-03T01:11:36.243Z,1.33
2023-08-03T01:14:03.640Z,1.30
2023-08-03T01:16:30.606Z,1.10
2023-08-03T01:18:57.636Z,1.45
2023-08-03T01:21:26.526Z,1.27
2023-08-03T01:23:54.065Z,1.35
2023-08-03T01:26:21.133Z,1.50
2023-08-03T01:28:47.860Z,1.77
2023-08-03T01:31:15.764Z,1.75
2023-08-03T01:33:42.600Z,1.60
2023-08-03T01:36:09.351Z,1.83
2023-08-03T01:38:36.154Z,2.30
2023-08-03T01:41:02.958Z,1.90
2023-08-03T01:43:29.731Z,2.17
2023-08-03T01:45:57.338Z,2.00
2023-08-03T01:48:24.127Z,2.35
2023-08-03T01:50:50.890Z,2.05
2023-08-03T01:53:18.484Z,2.78
2023-08-03T01:55:49.351Z,2.72
2023-08-03T01:58:16.151Z,2.75
2023-08-03T02:00:42.892Z,2.90
2023-08-03T02:03:09.815Z,2.25
2023-08-03T02:05:36.791Z,2.20
2023-08-03T02:08:03.558Z,2.10
2023-08-03T02:10:30.356Z,2.45
2023-08-03T02:12:57.114Z,2.53
2023-08-03T02:15:24.120Z,2.38
2023-08-03T02:17:50.974Z,2.72
2023-08-03T02:20:18.004Z,2.30
2023-08-03T02:22:45.674Z,2.28
2023-08-03T02:25:12.460Z,2.55
2023-08-03T02:27:39.217Z,3.22
2023-08-03T02:30:06.599Z,2.15
2023-08-03T02:32:37.770Z,2.75
2023-08-03T02:35:05.224Z,2.22
2023-08-03T02:37:32.360Z,2.75
2023-08-03T02:40:03.052Z,2.45
2023-08-03T02:42:31.225Z,2.30
2023-08-03T02:44:57.956Z,2.65
2023-08-03T02:47:25.983Z,2.30
2023-08-03T02:49:54.117Z,2.38
2023-08-03T02:52:20.906Z,2.65
2023-08-03T02:54:48.865Z,3.83
2023-08-03T02:57:18.181Z,4.28
2023-08-03T02:59:47.897Z,2.72
2023-08-03T03:02:19.657Z,2.30
2023-08-03T03:04:46.561Z,2.25
2023-08-03T03:07:13.313Z,2.47
2023-08-03T03:09:41.193Z,2.83
2023-08-03T03:14:45.048Z,3.03
2023-08-03T03:17:11.801Z,2.25
2023-08-03T03:19:38.597Z,2.13
2023-08-03T03:22:08.347Z,2.13
2023-08-03T03:24:35.341Z,1.70
2023-08-03T03:29:31.494Z,2.13
2023-08-03T03:31:58.435Z,1.95
2023-08-03T03:34:26.999Z,2.13
2023-08-03T03:36:56.212Z,1.88
2023-08-03T03:39:23.008Z,1.80
2023-08-03T03:41:51.470Z,1.95
2023-08-03T03:44:19.650Z,2.42
2023-08-03T03:46:46.419Z,1.75
2023-08-03T03:49:13.586Z,1.60
2023-08-03T03:51:40.374Z,2.38
2023-08-03T03:54:09.613Z,2.17
2023-08-03T03:56:36.405Z,1.77
2023-08-03T03:59:03.189Z,1.63
2023-08-03T04:01:31.248Z,1.90
2023-08-03T04:03:58.471Z,1.75
2023-08-03T04:06:25.538Z,1.90
2023-08-03T04:08:52.254Z,2.35
2023-08-03T04:11:19.060Z,1.90
2023-08-03T04:13:45.816Z,1.85
2023-08-03T04:16:12.623Z,1.67
2023-08-03T04:18:40.384Z,1.52
2023-08-03T04:21:07.132Z,1.60
2023-08-03T04:23:33.891Z,1.85
2023-08-03T04:26:04.643Z,1.45
2023-08-03T04:28:31.429Z,2.33
2023-08-03T04:30:58.307Z,1.55
2023-08-03T04:33:25.224Z,1.83
2023-08-03T04:35:56.186Z,2.33
2023-08-03T04:38:27.359Z,3.50
2023-08-03T04:41:02.671Z,2.00
2023-08-03T04:43:32.087Z,2.60
2023-08-03T04:45:58.888Z,2.55
2023-08-03T04:48:25.986Z,2.70
2023-08-03T04:50:53.868Z,3.47
2023-08-03T04:53:22.713Z,3.28
2023-08-03T04:58:16.599Z,3.25
2023-08-03T05:00:47.315Z,2.58
2023-08-03T05:03:14.100Z,2.67
2023-08-03T05:05:40.867Z,3.42
2023-08-03T05:08:08.208Z,3.28
2023-08-03T05:10:36.017Z,4.10
2023-08-03T05:13:02.755Z,2.97
2023-08-03T05:15:29.498Z,2.05
2023-08-03T05:17:56.618Z,2.40
2023-08-03T05:20:23.362Z,2.20
2023-08-03T05:22:51.600Z,3.10
2023-08-03T05:25:18.299Z,2.40
2023-08-03T05:27:45.038Z,2.00
2023-08-03T05:30:11.907Z,2.00
2023-08-03T05:32:38.719Z,2.33
2023-08-03T05:35:05.920Z,2.47
2023-08-03T05:37:32.802Z,2.20
2023-08-03T05:40:03.928Z,2.15
2023-08-03T05:42:39.715Z,2.40
2023-08-03T05:45:15.243Z,1.80
2023-08-03T05:47:42.115Z,2.80
2023-08-03T05:50:14.630Z,2.83
2023-08-03T05:52:41.464Z,2.03
2023-08-03T05:55:12.361Z,1.83
2023-08-03T05:57:39.330Z,2.10
2023-08-03T06:00:16.001Z,1.80
2023-08-03T06:02:44.836Z,1.92
2023-08-03T06:05:39.472Z,1.98
2023-08-03T06:08:20.325Z,1.95
2023-08-03T06:10:52.473Z,2.15
2023-08-03T06:13:26.140Z,2.42
2023-08-03T06:15:52.953Z,1.73
2023-08-03T06:18:21.592Z,1.40
2023-08-03T06:20:50.561Z,1.55
2023-08-03T06:23:20.658Z,1.73
2023-08-03T06:25:49.275Z,1.55
2023-08-03T06:28:17.907Z,2.28
2023-08-03T06:30:46.083Z,2.65
2023-08-03T06:33:15.117Z,1.90
2023-08-03T06:35:43.742Z,2.10
2023-08-03T06:38:13.542Z,1.77
2023-08-03T06:40:42.189Z,1.60
2023-08-03T06:43:13.162Z,2.00
2023-08-03T06:45:41.302Z,2.35
2023-08-03T06:48:09.328Z,1.83
2023-08-03T06:50:36.750Z,2.20
2023-08-03T06:53:04.080Z,2.70
2023-08-03T06:55:31.356Z,1.88
2023-08-03T06:57:59.107Z,2.00
2023-08-03T07:00:27.335Z,2.30
2023-08-03T07:02:57.394Z,2.10
2023-08-03T07:05:25.565Z,1.98
2023-08-03T07:07:52.356Z,2.90
2023-08-03T07:10:19.262Z,1.92
2023-08-03T07:12:46.008Z,1.92
2023-08-03T07:15:12.794Z,2.50
2023-08-03T07:17:39.543Z,2.10
2023-08-03T07:20:09.168Z,2.50
2023-08-03T07:22:36.601Z,2.42
2023-08-03T07:25:04.834Z,2.30
2023-08-03T07:27:32.267Z,2.22
2023-08-03T07:29:59.218Z,2.35
2023-08-03T07:32:26.385Z,2.30
2023-08-03T07:34:53.310Z,2.33
2023-08-03T07:37:20.077Z,2.67
2023-08-03T07:39:46.792Z,2.17
2023-08-03T07:42:13.585Z,2.85
2023-08-03T07:47:09.983Z,2.40
2023-08-03T07:49:36.850Z,1.90
2023-08-03T07:52:03.731Z,1.90
2023-08-03T07:54:32.073Z,2.05
2023-08-03T07:56:58.783Z,2.42
2023-08-03T07:59:25.502Z,2.17
2023-08-03T08:01:52.268Z,1.80
2023-08-03T08:04:19.816Z,2.15
2023-08-03T08:06:46.675Z,2.10
2023-08-03T08:09:13.527Z,1.98
2023-08-03T08:11:40.362Z,2.15
2023-08-03T08:14:07.130Z,2.60
2023-08-03T08:16:34.511Z,2.42
2023-08-03T08:19:01.360Z,1.80
2023-08-03T08:21:28.186Z,1.90
2023-08-03T08:23:54.931Z,2.22
2023-08-03T08:26:21.781Z,2.10
2023-08-03T08:29:02.153Z,2.00
2023-08-03T08:34:00.529Z,1.88
2023-08-03T08:36:27.466Z,1.90
2023-08-03T08:38:54.375Z,2.40
2023-08-03T08:41:21.167Z,2.08
2023-08-03T08:43:47.995Z,1.98
2023-08-03T08:46:14.743Z,2.10
2023-08-03T08:51:12.597Z,1.75
2023-08-03T08:57:04.242Z,2.28
2023-08-03T09:01:26.250Z,2.00
2023-08-03T09:06:24.839Z,2.22
2023-08-03T09:08:56.548Z,1.85
2023-08-03T09:11:40.089Z,2.13
2023-08-03T09:14:08.806Z,2.05
2023-08-03T09:16:36.304Z,1.95
2023-08-03T09:19:03.113Z,2.03
2023-08-03T09:29:03.734Z,2.20
2023-08-03T09:31:30.913Z,2.30
2023-08-03T09:34:01.596Z,2.35
2023-08-03T09:36:32.518Z,2.80
2023-08-03T09:44:15.860Z,2.85
2023-08-03T09:46:43.695Z,2.95
2023-08-03T09:59:48.714Z,2.10
2023-08-03T10:02:24.153Z,1.95
2023-08-03T10:04:56.819Z,2.05
2023-08-03T10:07:29.629Z,1.83
2023-08-03T10:09:59.974Z,1.88
2023-08-03T10:12:36.350Z,2.45
2023-08-03T10:15:05.933Z,2.28
2023-08-03T10:17:33.152Z,2.50
2023-08-03T10:20:01.619Z,2.28
2023-08-03T10:22:28.365Z,2.42
2023-08-03T10:25:21.024Z,1.75
2023-08-03T10:28:15.859Z,2.30
2023-08-03T10:31:06.135Z,2.15
2023-08-03T10:33:48.440Z,1.70
2023-08-03T10:36:34.839Z,1.65
2023-08-03T10:39:08.138Z,1.90
2023-08-03T10:41:39.813Z,1.95
2023-08-03T10:44:06.561Z,2.35
2023-08-03T10:46:35.420Z,1.88
2023-08-03T10:49:20.918Z,2.13
2023-08-03T10:51:55.588Z,2.20
2023-08-03T10:54:29.518Z,1.88
2023-08-03T10:57:02.584Z,1.90
2023-08-03T10:59:30.127Z,2.92
2023-08-03T11:04:26.904Z,1.70
2023-08-03T11:06:54.464Z,2.00
2023-08-03T11:09:22.031Z,2.15
2023-08-03T11:11:49.013Z,2.10
2023-08-03T11:14:16.402Z,2.30
2023-08-03T11:16:43.837Z,1.67
2023-08-03T11:19:14.762Z,2.08
2023-08-03T11:21:44.485Z,2.15
2023-08-03T11:24:11.586Z,2.22
2023-08-03T11:29:07.688Z,2.42
2023-08-03T11:31:34.643Z,1.90
2023-08-03T11:34:01.520Z,2.10
2023-08-03T11:36:28.281Z,1.80
2023-08-03T11:38:55.068Z,2.25
2023-08-03T11:41:32.772Z,2.00
2023-08-03T11:44:00.743Z,1.80
2023-08-03T11:46:29.116Z,2.20
2023-08-03T11:48:59.716Z,1.90
2023-08-03T11:51:37.451Z,1.98
2023-08-03T11:56:43.042Z,1.60
2023-08-03T11:59:12.804Z,1.70
2023-08-03T12:01:47.294Z,1.90
2023-08-03T12:04:15.558Z,1.63
2023-08-03T12:09:28.385Z,1.55
2023-08-03T12:12:04.924Z,1.70
2023-08-03T12:14:31.946Z,1.85
2023-08-03T12:16:59.526Z,2.13
2023-08-03T12:19:33.751Z,1.63
2023-08-03T12:22:04.677Z,1.77
2023-08-03T12:24:32.263Z,1.67
2023-08-03T12:27:04.438Z,1.85
2023-08-03T12:29:41.312Z,2.03
2023-08-03T12:32:09.313Z,1.83
2023-08-03T12:34:36.415Z,1.60
2023-08-03T12:39:30.679Z,2.00
2023-08-03T12:41:57.561Z,1.65
2023-08-03T12:44:27.332Z,2.05
2023-08-03T12:46:54.092Z,1.80
2023-08-03T12:49:22.223Z,1.75
2023-08-03T12:51:49.092Z,1.67
2023-08-03T12:54:15.839Z,1.42
2023-08-03T12:56:42.848Z,1.85
2023-08-03T12:59:09.867Z,1.80
2023-08-03T13:01:36.732Z,1.98
2023-08-03T13:04:03.585Z,1.60
2023-08-03T13:06:30.308Z,1.83
2023-08-03T13:08:57.065Z,1.67
2023-08-03T13:11:23.871Z,2.00
2023-08-03T13:13:50.763Z,1.92
2023-08-03T13:16:17.681Z,2.20
2023-08-03T13:18:44.571Z,1.60
2023-08-03T13:21:13.384Z,1.80
2023-08-03T13:23:40.627Z,1.58
2023-08-03T13:28:34.693Z,1.73
2023-08-03T13:31:01.557Z,1.75
2023-08-03T13:33:28.354Z,1.92
2023-08-03T13:35:55.424Z,1.77
2023-08-03T13:38:22.765Z,2.15
2023-08-03T13:40:50.084Z,1.98
2023-08-03T13:43:16.921Z,2.20
2023-08-03T13:45:46.089Z,2.00
2023-08-03T13:48:13.567Z,1.60
2023-08-03T13:50:41.774Z,1.52
2023-08-03T13:53:08.859Z,1.80
2023-08-03T13:55:35.605Z,2.10
2023-08-03T13:58:06.815Z,1.85
2023-08-03T14:03:10.341Z,2.08
2023-08-03T14:08:07.151Z,2.03
2023-08-03T14:10:35.627Z,2.17
2023-08-03T14:13:03.122Z,1.75
2023-08-03T14:23:21.258Z,1.90
2023-08-03T14:25:48.449Z,1.88
2023-08-03T14:30:44.984Z,2.05
2023-08-03T14:33:13.322Z,1.65
2023-08-03T14:35:40.110Z,1.90
2023-08-03T14:38:08.232Z,1.85
2023-08-03T14:40:35.821Z,2.10
2023-08-03T14:43:02.693Z,1.73
2023-08-03T14:45:36.271Z,1.92
2023-08-03T14:48:06.567Z,1.60
2023-08-03T14:50:36.209Z,2.10
2023-08-03T14:53:03.103Z,1.95
2023-08-03T14:55:31.081Z,2.22
2023-08-03T14:57:57.870Z,1.42
2023-08-03T15:00:24.622Z,2.20
2023-08-03T15:02:51.632Z,1.75
2023-08-03T15:05:18.783Z,1.63
2023-08-03T15:10:14.653Z,2.00
2023-08-03T15:12:41.363Z,2.35
2023-08-03T15:15:09.456Z,1.88
2023-08-03T15:17:38.850Z,1.40
2023-08-03T15:20:06.959Z,1.58
2023-08-03T15:22:35.028Z,1.95
2023-08-03T15:25:03.784Z,1.73
2023-08-03T15:27:32.098Z,1.98
2023-08-03T15:30:00.799Z,2.00
2023-08-03T15:35:02.003Z,2.30
2023-08-03T15:37:31.626Z,1.90
2023-08-03T15:40:01.136Z,1.70
2023-08-03T15:42:31.634Z,1.55
2023-08-03T15:45:04.874Z,1.98
2023-08-03T15:47:51.786Z,1.48
2023-08-03T15:50:27.111Z,1.80
2023-08-03T15:53:22.752Z,1.52
2023-08-03T15:58:21.788Z,1.77
2023-08-03T16:00:49.530Z,2.33
2023-08-03T16:03:16.989Z,2.40
2023-08-03T16:05:44.610Z,1.77
2023-08-03T16:08:11.937Z,1.80
2023-08-03T16:10:39.314Z,1.88
2023-08-03T16:13:08.886Z,2.00
2023-08-03T16:15:37.429Z,1.48
2023-08-03T16:18:05.365Z,1.63
2023-08-03T16:20:32.307Z,1.83
2023-08-03T16:22:59.060Z,1.45
2023-08-03T16:25:26.574Z,1.75
2023-08-03T16:27:53.696Z,1.63
2023-08-03T16:30:20.845Z,1.95
2023-08-03T16:32:50.362Z,1.40
2023-08-03T16:35:17.646Z,1.77
2023-08-03T16:40:11.687Z,2.08
2023-08-03T16:45:06.514Z,1.65
2023-08-03T16:47:33.959Z,1.42
2023-08-03T16:50:00.700Z,1.45
2023-08-03T16:52:27.417Z,2.17
2023-08-03T16:54:54.175Z,2.17
2023-08-03T16:57:21.133Z,2.08
2023-08-03T16:59:47.860Z,2.15
2023-08-03T17:02:14.580Z,2.28
2023-08-03T17:04:41.396Z,2.03
2023-08-03T17:07:09.396Z,1.67
2023-08-03T17:09:36.760Z,1.75
2023-08-03T17:12:03.929Z,2.00
2023-08-03T17:14:32.054Z,1.50
2023-08-03T17:16:58.847Z,2.30
2023-08-03T17:19:25.667Z,2.22
2023-08-03T17:21:52.502Z,1.63
2023-08-03T17:24:19.361Z,1.95
2023-08-03T17:26:46.783Z,1.50
2023-08-03T17:29:13.694Z,1.85
2023-08-03T17:31:41.331Z,2.90
2023-08-03T17:34:09.317Z,2.50
2023-08-03T17:37:01.848Z,3.22
2023-08-03T17:39:52.799Z,1.80
2023-08-03T17:42:19.568Z,1.58
2023-08-03T17:44:47.288Z,1.88
2023-08-03T17:47:14.038Z,1.77
2023-08-03T17:49:40.769Z,2.13
2023-08-03T17:52:07.561Z,2.13
2023-08-03T17:54:37.843Z,2.08
2023-08-03T17:57:05.043Z,1.80
2023-08-03T17:59:31.965Z,2.00
2023-08-03T18:01:59.180Z,1.90
2023-08-03T18:06:56.134Z,1.65
2023-08-03T18:09:22.943Z,2.20
2023-08-03T18:11:49.706Z,1.85
2023-08-03T18:14:16.421Z,1.75
2023-08-03T18:16:43.321Z,1.80
2023-08-03T18:19:10.127Z,1.60
2023-08-03T18:21:36.868Z,1.60
2023-08-03T18:24:03.803Z,1.55
2023-08-03T18:26:30.541Z,1.77
2023-08-03T18:28:57.398Z,1.65
2023-08-03T18:31:24.316Z,1.63
2023-08-03T18:33:52.254Z,2.05
2023-08-03T18:36:19.919Z,1.73
2023-08-03T18:38:47.963Z,1.95
2023-08-03T18:41:18.225Z,1.60
2023-08-03T18:43:47.321Z,1.60
2023-08-03T18:46:16.316Z,1.33
2023-08-03T18:48:43.716Z,1.52
2023-08-03T18:51:12.289Z,1.50
2023-08-03T18:53:41.146Z,1.50
2023-08-03T18:56:13.768Z,1.92
2023-08-03T18:58:42.769Z,1.60
2023-08-03T19:01:13.168Z,1.63
2023-08-03T19:03:41.384Z,2.03
2023-08-03T19:06:10.114Z,1.35
2023-08-03T19:08:37.870Z,1.88
2023-08-03T19:11:04.593Z,1.80
2023-08-03T19:13:32.530Z,2.10
2023-08-03T19:16:02.395Z,2.78
2023-08-03T19:18:29.818Z,2.53
2023-08-03T19:20:57.825Z,1.80
2023-08-03T19:23:27.848Z,1.40
2023-08-03T19:25:56.853Z,1.98
2023-08-03T19:28:24.725Z,1.90
2023-08-03T19:30:53.822Z,1.60
2023-08-03T19:33:20.610Z,1.77
2023-08-03T19:35:48.346Z,1.63
2023-08-03T19:38:16.026Z,1.90
2023-08-03T19:40:44.867Z,2.15
2023-08-03T19:43:12.375Z,1.98
2023-08-03T19:45:39.539Z,1.77
2023-08-03T19:57:05.944Z,2.17
2023-08-03T19:59:32.652Z,1.73
2023-08-03T20:07:13.557Z,1.65
2023-08-03T20:09:40.717Z,2.17
2023-08-03T20:12:07.755Z,1.90
2023-08-03T20:14:37.368Z,2.63
2023-08-03T20:19:39.912Z,2.53
2023-08-03T20:22:07.088Z,2.30
2023-08-03T20:24:33.831Z,1.58
2023-08-03T20:27:06.310Z,1.80
2023-08-03T20:32:05.067Z,2.13
2023-08-03T20:34:32.090Z,2.10
2023-08-03T20:36:59.234Z,1.80
2023-08-03T20:41:55.776Z,1.60
2023-08-03T20:45:00.187Z,2.10
2023-08-03T20:49:41.679Z,2.10
2023-08-03T20:52:08.416Z,1.90
2023-08-03T20:57:05.329Z,1.90
2023-08-03T21:01:58.761Z,1.92
2023-08-03T21:04:26.782Z,2.03
2023-08-03T21:06:53.811Z,2.20
2023-08-03T21:09:20.657Z,1.65
2023-08-03T21:11:47.534Z,2.22
2023-08-03T21:14:14.444Z,1.90
2023-08-03T21:16:41.255Z,1.73
2023-08-03T21:19:10.978Z,1.60
2023-08-03T21:22:17.583Z,1.70
2023-08-03T21:24:44.599Z,2.08
2023-08-03T21:27:11.633Z,1.73
2023-08-03T21:29:38.392Z,1.85
2023-08-03T21:32:05.539Z,1.95
2023-08-03T21:43:33.489Z,1.92
2023-08-03T21:46:00.233Z,1.85
2023-08-03T21:48:27.477Z,2.35
2023-08-03T21:50:54.260Z,2.00
2023-08-03T21:53:21.024Z,2.38
2023-08-03T21:55:47.902Z,2.45
2023-08-03T21:58:14.677Z,2.55
2023-08-03T22:00:41.533Z,2.17
2023-08-03T22:03:08.546Z,2.83
2023-08-03T22:05:35.473Z,2.13
2023-08-03T22:08:02.610Z,2.20
2023-08-03T22:10:29.643Z,2.13
2023-08-03T22:12:56.526Z,2.80
2023-08-03T22:15:23.472Z,4.20
2023-08-03T22:17:50.438Z,3.05
2023-08-03T22:20:17.552Z,2.92
2023-08-03T22:22:44.426Z,2.70
2023-08-03T22:25:11.952Z,2.15
2023-08-03T22:27:38.778Z,2.50
2023-08-03T22:30:06.444Z,2.35
2023-08-03T22:32:33.277Z,2.25
2023-08-03T22:35:00.175Z,2.30
2023-08-03T22:37:27.106Z,2.75
2023-08-03T22:39:53.991Z,1.92
2023-08-03T22:42:20.749Z,2.30
2023-08-03T22:44:48.160Z,2.55
2023-08-03T22:47:14.946Z,2.20
2023-08-03T22:49:41.740Z,3.15
2023-08-03T22:52:10.160Z,1.92
2023-08-03T22:54:36.965Z,2.30
2023-08-03T22:57:04.062Z,2.10
2023-08-03T22:59:30.794Z,2.30
2023-08-03T23:01:57.649Z,2.03
2023-08-03T23:04:24.675Z,2.90
2023-08-03T23:09:18.443Z,2.47
2023-08-03T23:11:45.734Z,2.50
2023-08-03T23:14:12.731Z,2.72
2023-08-03T23:16:39.990Z,3.38
2023-08-03T23:21:34.292Z,2.72
2023-08-03T23:24:01.185Z,2.83
2023-08-03T23:26:27.931Z,2.85
2023-08-03T23:28:54.732Z,2.15
2023-08-03T23:31:21.516Z,3.05
2023-08-03T23:33:48.291Z,2.85
2023-08-03T23:36:15.082Z,2.90
2023-08-03T23:38:41.862Z,2.60
2023-08-03T23:41:08.629Z,3.30
2023-08-03T23:43:35.563Z,2.80
2023-08-03T23:46:02.439Z,2.63
2023-08-03T23:48:29.959Z,3.10
2023-08-03T23:50:56.726Z,2.60
2023-08-03T23:53:23.497Z,2.67
2023-08-03T23:55:50.229Z,2.20
2023-08-03T23:58:16.996Z,2.83
